sensor_id;sensor_type;location;lat;lon;timestamp;temperature;humidity
10083;DHT22;5080;48.528;8.078;2022-10-23T00:01:27;14.30;99.90
10083;DHT22;5080;48.528;8.078;2022-10-23T00:03:56;14.30;99.90
10083;DHT22;5080;48.528;8.078;2022-10-23T00:06:24;14.30;99.90
10083;DHT22;5080;48.528;8.078;2022-10-23T00:08:52;14.30;99.90
10083;DHT22;5080;48.528;8.078;2022-10-23T00:11:21;14.20;99.90
10083;DHT22;5080;48.528;8.078;2022-10-23T00:13:52;14.30;99.90
10083;DHT22;5080;48.528;8.078;2022-10-23T00:16:19;14.30;99.90
10083;DHT22;5080;48.528;8.078;2022-10-23T00:18:46;14.30;99.90
10083;DHT22;5080;48.528;8.078;2022-10-23T00:21:14;14.30;99.90
10083;DHT22;5080;48.528;8.078;2022-10-23T00:23:41;14.30;99.90
10083;DHT22;5080;48.528;8.078;2022-10-23T00:26:08;14.30;99.90
10083;DHT22;5080;48.528;8.078;2022-10-23T00:28:40;14.20;99.90
10083;DHT22;5080;48.528;8.078;2022-10-23T00:31:08;14.20;99.90
10083;DHT22;5080;48.528;8.078;2022-10-23T00:33:35;14.20;99.90
10083;DHT22;5080;48.528;8.078;2022-10-23T00:36:04;14.10;99.90
10083;DHT22;5080;48.528;8.078;2022-10-23T00:38:31;14.10;99.90
10083;DHT22;5080;48.528;8.078;2022-10-23T00:40:58;14.10;99.90
10083;DHT22;5080;48.528;8.078;2022-10-23T00:43:27;14.10;99.90
10083;DHT22;5080;48.528;8.078;2022-10-23T00:45:55;14.10;99.90
10083;DHT22;5080;48.528;8.078;2022-10-23T00:48:25;14.20;99.90
10083;DHT22;5080;48.528;8.078;2022-10-23T00:50:53;14.20;99.90
10083;DHT22;5080;48.528;8.078;2022-10-23T00:53:20;14.20;99.90
10083;DHT22;5080;48.528;8.078;2022-10-23T00:55:49;14.20;99.90
10083;DHT22;5080;48.528;8.078;2022-10-23T00:58:20;14.10;99.90
10083;DHT22;5080;48.528;8.078;2022-10-23T01:00:50;14.10;99.90
10083;DHT22;5080;48.528;8.078;2022-10-23T01:03:19;14.10;99.90
10083;DHT22;5080;48.528;8.078;2022-10-23T01:05:51;14.10;99.90
10083;DHT22;5080;48.528;8.078;2022-10-23T01:08:23;14.00;99.90
10083;DHT22;5080;48.528;8.078;2022-10-23T01:10:57;13.90;99.90
10083;DHT22;5080;48.528;8.078;2022-10-23T01:13:35;13.80;99.90
10083;DHT22;5080;48.528;8.078;2022-10-23T01:16:06;13.80;99.90
10083;DHT22;5080;48.528;8.078;2022-10-23T01:18:40;13.80;99.90
10083;DHT22;5080;48.528;8.078;2022-10-23T01:21:13;13.80;99.90
10083;DHT22;5080;48.528;8.078;2022-10-23T01:23:56;13.90;99.90
10083;DHT22;5080;48.528;8.078;2022-10-23T01:26:34;13.80;99.90
10083;DHT22;5080;48.528;8.078;2022-10-23T01:29:09;13.90;99.90
10083;DHT22;5080;48.528;8.078;2022-10-23T01:31:44;13.90;99.90
10083;DHT22;5080;48.528;8.078;2022-10-23T01:34:15;13.90;99.90
10083;DHT22;5080;48.528;8.078;2022-10-23T01:36:47;14.00;99.90
10083;DHT22;5080;48.528;8.078;2022-10-23T01:39:19;13.90;99.90
10083;DHT22;5080;48.528;8.078;2022-10-23T01:41:50;13.90;99.90
10083;DHT22;5080;48.528;8.078;2022-10-23T01:44:24;13.90;99.90
10083;DHT22;5080;48.528;8.078;2022-10-23T01:46:53;14.00;99.90
10083;DHT22;5080;48.528;8.078;2022-10-23T01:49:22;14.00;99.90
10083;DHT22;5080;48.528;8.078;2022-10-23T01:51:52;14.00;99.90
10083;DHT22;5080;48.528;8.078;2022-10-23T01:54:21;13.90;99.90
10083;DHT22;5080;48.528;8.078;2022-10-23T01:56:49;14.00;99.90
10083;DHT22;5080;48.528;8.078;2022-10-23T01:59:21;14.00;99.90
10083;DHT22;5080;48.528;8.078;2022-10-23T02:01:52;13.90;99.90
10083;DHT22;5080;48.528;8.078;2022-10-23T02:04:26;13.90;99.90
10083;DHT22;5080;48.528;8.078;2022-10-23T02:06:55;13.90;99.90
10083;DHT22;5080;48.528;8.078;2022-10-23T02:09:22;14.00;99.90
10083;DHT22;5080;48.528;8.078;2022-10-23T02:11:53;14.00;99.90
10083;DHT22;5080;48.528;8.078;2022-10-23T02:14:31;14.00;99.90
10083;DHT22;5080;48.528;8.078;2022-10-23T02:17:06;14.00;99.90
10083;DHT22;5080;48.528;8.078;2022-10-23T02:19:40;14.00;99.90
10083;DHT22;5080;48.528;8.078;2022-10-23T02:22:11;14.00;99.90
10083;DHT22;5080;48.528;8.078;2022-10-23T02:24:45;14.00;99.90
10083;DHT22;5080;48.528;8.078;2022-10-23T02:27:16;14.10;99.90
10083;DHT22;5080;48.528;8.078;2022-10-23T02:29:50;14.10;99.90
10083;DHT22;5080;48.528;8.078;2022-10-23T02:32:18;14.10;99.90
10083;DHT22;5080;48.528;8.078;2022-10-23T02:34:46;14.10;99.90
10083;DHT22;5080;48.528;8.078;2022-10-23T02:37:13;14.00;99.90
10083;DHT22;5080;48.528;8.078;2022-10-23T02:39:40;14.00;99.90
10083;DHT22;5080;48.528;8.078;2022-10-23T02:42:10;14.00;99.90
10083;DHT22;5080;48.528;8.078;2022-10-23T02:44:47;14.00;99.90
10083;DHT22;5080;48.528;8.078;2022-10-23T02:47:31;14.00;99.90
10083;DHT22;5080;48.528;8.078;2022-10-23T02:50:05;14.10;99.90
10083;DHT22;5080;48.528;8.078;2022-10-23T02:52:38;14.10;99.90
10083;DHT22;5080;48.528;8.078;2022-10-23T02:55:17;14.10;99.90
10083;DHT22;5080;48.528;8.078;2022-10-23T02:57:51;14.10;99.90
10083;DHT22;5080;48.528;8.078;2022-10-23T03:00:23;14.10;99.90
10083;DHT22;5080;48.528;8.078;2022-10-23T03:02:54;14.00;99.90
10083;DHT22;5080;48.528;8.078;2022-10-23T03:05:25;14.00;99.90
10083;DHT22;5080;48.528;8.078;2022-10-23T03:07:53;14.00;99.90
10083;DHT22;5080;48.528;8.078;2022-10-23T03:10:20;14.00;99.90
10083;DHT22;5080;48.528;8.078;2022-10-23T03:12:47;14.00;99.90
10083;DHT22;5080;48.528;8.078;2022-10-23T03:15:15;13.90;99.90
10083;DHT22;5080;48.528;8.078;2022-10-23T03:17:43;13.80;99.90
10083;DHT22;5080;48.528;8.078;2022-10-23T03:20:10;13.80;99.90
10083;DHT22;5080;48.528;8.078;2022-10-23T03:22:38;13.80;99.90
10083;DHT22;5080;48.528;8.078;2022-10-23T03:25:06;13.80;99.90
10083;DHT22;5080;48.528;8.078;2022-10-23T03:27:33;13.70;99.90
10083;DHT22;5080;48.528;8.078;2022-10-23T03:30:00;13.70;99.90
10083;DHT22;5080;48.528;8.078;2022-10-23T03:32:27;13.60;99.90
10083;DHT22;5080;48.528;8.078;2022-10-23T03:34:55;13.60;99.90
10083;DHT22;5080;48.528;8.078;2022-10-23T03:37:22;13.70;99.90
10083;DHT22;5080;48.528;8.078;2022-10-23T03:39:49;13.70;99.90
10083;DHT22;5080;48.528;8.078;2022-10-23T03:42:16;13.70;99.90
10083;DHT22;5080;48.528;8.078;2022-10-23T03:44:43;13.80;99.90
10083;DHT22;5080;48.528;8.078;2022-10-23T03:47:10;13.80;99.90
10083;DHT22;5080;48.528;8.078;2022-10-23T03:49:37;13.90;99.90
10083;DHT22;5080;48.528;8.078;2022-10-23T03:52:06;14.00;99.90
10083;DHT22;5080;48.528;8.078;2022-10-23T03:54:33;14.00;99.90
10083;DHT22;5080;48.528;8.078;2022-10-23T03:57:00;14.10;99.90
10083;DHT22;5080;48.528;8.078;2022-10-23T03:59:27;14.10;99.90
10083;DHT22;5080;48.528;8.078;2022-10-23T04:01:54;14.10;99.90
10083;DHT22;5080;48.528;8.078;2022-10-23T04:04:21;14.20;99.90
10083;DHT22;5080;48.528;8.078;2022-10-23T04:06:48;14.10;99.90
10083;DHT22;5080;48.528;8.078;2022-10-23T04:09:16;14.10;99.90
10083;DHT22;5080;48.528;8.078;2022-10-23T04:11:43;14.10;99.90
10083;DHT22;5080;48.528;8.078;2022-10-23T04:14:10;14.10;99.90
10083;DHT22;5080;48.528;8.078;2022-10-23T04:16:38;14.20;99.90
10083;DHT22;5080;48.528;8.078;2022-10-23T04:19:05;14.20;99.90
10083;DHT22;5080;48.528;8.078;2022-10-23T04:21:32;14.20;99.90
10083;DHT22;5080;48.528;8.078;2022-10-23T04:23:58;14.20;99.90
10083;DHT22;5080;48.528;8.078;2022-10-23T04:26:27;14.20;99.90
10083;DHT22;5080;48.528;8.078;2022-10-23T04:28:53;14.10;99.90
10083;DHT22;5080;48.528;8.078;2022-10-23T04:31:20;14.00;99.90
10083;DHT22;5080;48.528;8.078;2022-10-23T04:33:47;14.00;99.90
10083;DHT22;5080;48.528;8.078;2022-10-23T04:36:14;14.10;99.90
10083;DHT22;5080;48.528;8.078;2022-10-23T04:38:41;14.00;99.90
10083;DHT22;5080;48.528;8.078;2022-10-23T04:41:08;14.10;99.90
10083;DHT22;5080;48.528;8.078;2022-10-23T04:43:36;14.10;99.90
10083;DHT22;5080;48.528;8.078;2022-10-23T04:46:03;14.20;99.90
10083;DHT22;5080;48.528;8.078;2022-10-23T04:48:30;14.20;99.90
10083;DHT22;5080;48.528;8.078;2022-10-23T04:50:58;14.20;99.90
10083;DHT22;5080;48.528;8.078;2022-10-23T04:53:26;14.20;99.90
10083;DHT22;5080;48.528;8.078;2022-10-23T04:55:55;14.20;99.90
10083;DHT22;5080;48.528;8.078;2022-10-23T04:58:23;14.20;99.90
10083;DHT22;5080;48.528;8.078;2022-10-23T05:00:52;14.20;99.90
10083;DHT22;5080;48.528;8.078;2022-10-23T05:03:20;14.20;99.90
10083;DHT22;5080;48.528;8.078;2022-10-23T05:05:47;14.20;99.90
10083;DHT22;5080;48.528;8.078;2022-10-23T05:08:14;14.40;99.90
10083;DHT22;5080;48.528;8.078;2022-10-23T05:10:41;14.20;99.90
10083;DHT22;5080;48.528;8.078;2022-10-23T05:13:07;14.30;99.90
10083;DHT22;5080;48.528;8.078;2022-10-23T05:15:34;14.30;99.90
10083;DHT22;5080;48.528;8.078;2022-10-23T05:18:08;14.30;99.90
10083;DHT22;5080;48.528;8.078;2022-10-23T05:20:37;14.30;99.90
10083;DHT22;5080;48.528;8.078;2022-10-23T05:23:06;14.30;99.90
10083;DHT22;5080;48.528;8.078;2022-10-23T05:25:34;14.30;99.90
10083;DHT22;5080;48.528;8.078;2022-10-23T05:28:01;14.40;99.90
10083;DHT22;5080;48.528;8.078;2022-10-23T05:30:29;14.40;99.90
10083;DHT22;5080;48.528;8.078;2022-10-23T05:32:58;14.40;99.90
10083;DHT22;5080;48.528;8.078;2022-10-23T05:35:28;14.50;99.90
10083;DHT22;5080;48.528;8.078;2022-10-23T05:37:57;14.50;99.90
10083;DHT22;5080;48.528;8.078;2022-10-23T05:40:24;14.60;99.90
10083;DHT22;5080;48.528;8.078;2022-10-23T05:42:51;14.50;99.90
10083;DHT22;5080;48.528;8.078;2022-10-23T05:45:18;14.40;99.90
10083;DHT22;5080;48.528;8.078;2022-10-23T05:47:45;14.40;99.90
10083;DHT22;5080;48.528;8.078;2022-10-23T05:50:13;14.40;99.90
10083;DHT22;5080;48.528;8.078;2022-10-23T05:52:45;14.40;99.90
10083;DHT22;5080;48.528;8.078;2022-10-23T05:55:13;14.40;99.90
10083;DHT22;5080;48.528;8.078;2022-10-23T05:57:40;14.30;99.90
10083;DHT22;5080;48.528;8.078;2022-10-23T06:00:08;14.30;99.90
10083;DHT22;5080;48.528;8.078;2022-10-23T06:02:35;14.40;99.90
10083;DHT22;5080;48.528;8.078;2022-10-23T06:05:02;14.30;99.90
10083;DHT22;5080;48.528;8.078;2022-10-23T06:07:29;14.30;99.90
10083;DHT22;5080;48.528;8.078;2022-10-23T06:09:57;14.30;99.90
10083;DHT22;5080;48.528;8.078;2022-10-23T06:12:24;14.20;99.90
10083;DHT22;5080;48.528;8.078;2022-10-23T06:14:51;14.20;99.90
10083;DHT22;5080;48.528;8.078;2022-10-23T06:17:18;14.10;99.90
10083;DHT22;5080;48.528;8.078;2022-10-23T06:19:45;14.10;99.90
10083;DHT22;5080;48.528;8.078;2022-10-23T06:22:11;14.20;99.90
10083;DHT22;5080;48.528;8.078;2022-10-23T06:24:38;14.10;99.90
10083;DHT22;5080;48.528;8.078;2022-10-23T06:27:06;14.10;99.90
10083;DHT22;5080;48.528;8.078;2022-10-23T06:29:33;14.10;99.90
10083;DHT22;5080;48.528;8.078;2022-10-23T06:32:00;14.00;99.90
10083;DHT22;5080;48.528;8.078;2022-10-23T06:34:27;14.00;99.90
10083;DHT22;5080;48.528;8.078;2022-10-23T06:36:54;14.00;99.90
10083;DHT22;5080;48.528;8.078;2022-10-23T06:39:21;13.90;99.90
10083;DHT22;5080;48.528;8.078;2022-10-23T06:41:48;14.00;99.90
10083;DHT22;5080;48.528;8.078;2022-10-23T06:44:16;13.90;99.90
10083;DHT22;5080;48.528;8.078;2022-10-23T06:46:43;13.90;99.90
10083;DHT22;5080;48.528;8.078;2022-10-23T06:49:12;13.90;99.90
10083;DHT22;5080;48.528;8.078;2022-10-23T06:51:39;13.90;99.90
10083;DHT22;5080;48.528;8.078;2022-10-23T06:54:06;14.00;99.90
10083;DHT22;5080;48.528;8.078;2022-10-23T06:56:33;13.90;99.90
10083;DHT22;5080;48.528;8.078;2022-10-23T06:59:00;14.00;99.90
10083;DHT22;5080;48.528;8.078;2022-10-23T07:01:28;14.00;99.90
10083;DHT22;5080;48.528;8.078;2022-10-23T07:03:55;14.10;99.90
10083;DHT22;5080;48.528;8.078;2022-10-23T07:06:22;14.20;99.90
10083;DHT22;5080;48.528;8.078;2022-10-23T07:08:49;14.20;99.90
10083;DHT22;5080;48.528;8.078;2022-10-23T07:11:16;14.30;99.90
10083;DHT22;5080;48.528;8.078;2022-10-23T07:13:43;14.30;99.90
10083;DHT22;5080;48.528;8.078;2022-10-23T07:16:13;14.30;99.90
10083;DHT22;5080;48.528;8.078;2022-10-23T07:18:41;14.40;99.90
10083;DHT22;5080;48.528;8.078;2022-10-23T07:21:08;14.40;99.90
10083;DHT22;5080;48.528;8.078;2022-10-23T07:23:35;14.50;99.90
10083;DHT22;5080;48.528;8.078;2022-10-23T07:26:04;14.50;99.90
10083;DHT22;5080;48.528;8.078;2022-10-23T07:28:31;14.60;99.90
10083;DHT22;5080;48.528;8.078;2022-10-23T07:30:58;14.70;99.90
10083;DHT22;5080;48.528;8.078;2022-10-23T07:33:25;14.80;99.90
10083;DHT22;5080;48.528;8.078;2022-10-23T07:35:54;15.00;99.90
10083;DHT22;5080;48.528;8.078;2022-10-23T07:38:20;15.00;99.90
10083;DHT22;5080;48.528;8.078;2022-10-23T07:40:47;15.20;99.90
10083;DHT22;5080;48.528;8.078;2022-10-23T07:43:14;15.30;99.90
10083;DHT22;5080;48.528;8.078;2022-10-23T07:45:42;15.30;99.90
10083;DHT22;5080;48.528;8.078;2022-10-23T07:48:11;15.30;99.90
10083;DHT22;5080;48.528;8.078;2022-10-23T07:50:38;15.30;99.90
10083;DHT22;5080;48.528;8.078;2022-10-23T07:53:08;15.40;99.90
10083;DHT22;5080;48.528;8.078;2022-10-23T07:55:36;15.40;99.90
10083;DHT22;5080;48.528;8.078;2022-10-23T07:58:03;15.50;99.90
10083;DHT22;5080;48.528;8.078;2022-10-23T08:00:30;15.50;99.90
10083;DHT22;5080;48.528;8.078;2022-10-23T08:02:57;15.80;99.90
10083;DHT22;5080;48.528;8.078;2022-10-23T08:05:24;15.90;99.90
10083;DHT22;5080;48.528;8.078;2022-10-23T08:07:50;16.20;99.90
10083;DHT22;5080;48.528;8.078;2022-10-23T08:10:19;16.30;99.90
10083;DHT22;5080;48.528;8.078;2022-10-23T08:12:45;16.40;99.90
10083;DHT22;5080;48.528;8.078;2022-10-23T08:15:12;16.50;99.90
10083;DHT22;5080;48.528;8.078;2022-10-23T08:17:39;16.70;99.90
10083;DHT22;5080;48.528;8.078;2022-10-23T08:20:07;16.90;99.90
10083;DHT22;5080;48.528;8.078;2022-10-23T08:22:34;17.10;99.90
10083;DHT22;5080;48.528;8.078;2022-10-23T08:25:01;17.40;99.90
10083;DHT22;5080;48.528;8.078;2022-10-23T08:27:29;17.40;99.90
10083;DHT22;5080;48.528;8.078;2022-10-23T08:29:56;17.50;99.90
10083;DHT22;5080;48.528;8.078;2022-10-23T08:32:23;17.60;99.90
10083;DHT22;5080;48.528;8.078;2022-10-23T08:34:53;17.80;99.90
10083;DHT22;5080;48.528;8.078;2022-10-23T08:37:20;17.80;99.90
10083;DHT22;5080;48.528;8.078;2022-10-23T08:39:47;18.00;99.90
10083;DHT22;5080;48.528;8.078;2022-10-23T08:42:18;18.10;99.90
10083;DHT22;5080;48.528;8.078;2022-10-23T08:44:54;18.30;99.90
10083;DHT22;5080;48.528;8.078;2022-10-23T08:47:27;18.40;99.90
10083;DHT22;5080;48.528;8.078;2022-10-23T08:49:58;18.50;99.90
10083;DHT22;5080;48.528;8.078;2022-10-23T08:52:40;18.70;99.90
10083;DHT22;5080;48.528;8.078;2022-10-23T08:55:15;18.70;99.90
10083;DHT22;5080;48.528;8.078;2022-10-23T08:57:46;18.70;99.90
10083;DHT22;5080;48.528;8.078;2022-10-23T09:00:17;18.80;99.90
10083;DHT22;5080;48.528;8.078;2022-10-23T09:02:45;18.90;99.90
10083;DHT22;5080;48.528;8.078;2022-10-23T09:05:16;19.00;99.90
10083;DHT22;5080;48.528;8.078;2022-10-23T09:07:56;19.10;99.90
10083;DHT22;5080;48.528;8.078;2022-10-23T09:10:36;19.20;99.90
10083;DHT22;5080;48.528;8.078;2022-10-23T09:13:31;19.40;99.90
10083;DHT22;5080;48.528;8.078;2022-10-23T09:16:06;19.50;99.90
10083;DHT22;5080;48.528;8.078;2022-10-23T09:18:35;19.70;99.90
10083;DHT22;5080;48.528;8.078;2022-10-23T09:21:08;19.80;99.90
10083;DHT22;5080;48.528;8.078;2022-10-23T09:23:35;19.90;99.90
10083;DHT22;5080;48.528;8.078;2022-10-23T09:26:09;19.90;99.90
10083;DHT22;5080;48.528;8.078;2022-10-23T09:28:44;20.00;99.90
10083;DHT22;5080;48.528;8.078;2022-10-23T09:31:14;20.00;99.90
10083;DHT22;5080;48.528;8.078;2022-10-23T09:33:41;20.00;99.90
10083;DHT22;5080;48.528;8.078;2022-10-23T09:36:20;19.90;99.90
10083;DHT22;5080;48.528;8.078;2022-10-23T09:38:50;20.00;99.90
10083;DHT22;5080;48.528;8.078;2022-10-23T09:41:20;20.00;99.90
10083;DHT22;5080;48.528;8.078;2022-10-23T09:43:59;19.90;99.90
10083;DHT22;5080;48.528;8.078;2022-10-23T09:46:37;20.00;99.90
10083;DHT22;5080;48.528;8.078;2022-10-23T09:49:04;20.10;99.90
10083;DHT22;5080;48.528;8.078;2022-10-23T09:51:32;20.10;99.90
10083;DHT22;5080;48.528;8.078;2022-10-23T09:53:59;20.40;99.90
10083;DHT22;5080;48.528;8.078;2022-10-23T09:56:29;20.60;99.90
10083;DHT22;5080;48.528;8.078;2022-10-23T09:58:58;20.80;99.90
10083;DHT22;5080;48.528;8.078;2022-10-23T10:01:27;20.80;99.90
10083;DHT22;5080;48.528;8.078;2022-10-23T10:03:56;21.00;99.90
10083;DHT22;5080;48.528;8.078;2022-10-23T10:06:24;20.90;99.90
10083;DHT22;5080;48.528;8.078;2022-10-23T10:08:54;20.90;99.90
10083;DHT22;5080;48.528;8.078;2022-10-23T10:11:26;20.90;99.90
10083;DHT22;5080;48.528;8.078;2022-10-23T10:14:11;20.90;99.90
10083;DHT22;5080;48.528;8.078;2022-10-23T10:16:49;20.90;99.90
10083;DHT22;5080;48.528;8.078;2022-10-23T10:19:30;20.90;99.90
10083;DHT22;5080;48.528;8.078;2022-10-23T10:22:04;20.70;99.90
10083;DHT22;5080;48.528;8.078;2022-10-23T10:24:39;20.50;99.90
10083;DHT22;5080;48.528;8.078;2022-10-23T10:27:16;20.50;99.90
10083;DHT22;5080;48.528;8.078;2022-10-23T10:29:57;20.40;99.90
10083;DHT22;5080;48.528;8.078;2022-10-23T10:32:35;20.30;99.90
10083;DHT22;5080;48.528;8.078;2022-10-23T10:35:21;20.30;99.90
10083;DHT22;5080;48.528;8.078;2022-10-23T10:38:02;20.30;99.90
10083;DHT22;5080;48.528;8.078;2022-10-23T10:40:34;20.30;99.90
10083;DHT22;5080;48.528;8.078;2022-10-23T10:43:11;20.40;99.90
10083;DHT22;5080;48.528;8.078;2022-10-23T10:45:46;20.40;99.90
10083;DHT22;5080;48.528;8.078;2022-10-23T10:48:24;20.50;99.90
10083;DHT22;5080;48.528;8.078;2022-10-23T10:50:59;20.50;99.90
10083;DHT22;5080;48.528;8.078;2022-10-23T10:53:37;20.60;99.90
10083;DHT22;5080;48.528;8.078;2022-10-23T10:56:09;20.70;99.90
10083;DHT22;5080;48.528;8.078;2022-10-23T10:58:40;20.70;99.90
10083;DHT22;5080;48.528;8.078;2022-10-23T11:01:14;20.70;99.90
10083;DHT22;5080;48.528;8.078;2022-10-23T11:03:47;20.80;99.90
10083;DHT22;5080;48.528;8.078;2022-10-23T11:06:20;20.80;99.90
10083;DHT22;5080;48.528;8.078;2022-10-23T11:08:48;20.80;99.90
10083;DHT22;5080;48.528;8.078;2022-10-23T11:11:19;20.90;99.90
10083;DHT22;5080;48.528;8.078;2022-10-23T11:13:48;21.10;99.90
10083;DHT22;5080;48.528;8.078;2022-10-23T11:16:19;21.20;99.90
10083;DHT22;5080;48.528;8.078;2022-10-23T11:18:56;21.20;99.90
10083;DHT22;5080;48.528;8.078;2022-10-23T11:21:32;21.10;99.90
10083;DHT22;5080;48.528;8.078;2022-10-23T11:27:17;21.00;99.90
10083;DHT22;5080;48.528;8.078;2022-10-23T11:30:09;20.90;99.90
10083;DHT22;5080;48.528;8.078;2022-10-23T11:38:28;21.00;99.90
10083;DHT22;5080;48.528;8.078;2022-10-23T11:40:58;21.10;99.90
10083;DHT22;5080;48.528;8.078;2022-10-23T11:43:28;21.20;99.90
10083;DHT22;5080;48.528;8.078;2022-10-23T11:45:56;21.30;99.90
10083;DHT22;5080;48.528;8.078;2022-10-23T11:48:35;21.30;99.90
10083;DHT22;5080;48.528;8.078;2022-10-23T11:51:03;21.40;99.90
10083;DHT22;5080;48.528;8.078;2022-10-23T11:53:39;21.30;99.90
10083;DHT22;5080;48.528;8.078;2022-10-23T11:56:24;21.40;99.90
10083;DHT22;5080;48.528;8.078;2022-10-23T11:58:52;21.40;99.90
10083;DHT22;5080;48.528;8.078;2022-10-23T12:01:27;21.30;99.90
10083;DHT22;5080;48.528;8.078;2022-10-23T12:03:58;21.30;99.90
10083;DHT22;5080;48.528;8.078;2022-10-23T12:06:27;21.20;99.90
10083;DHT22;5080;48.528;8.078;2022-10-23T12:09:00;21.20;99.90
10083;DHT22;5080;48.528;8.078;2022-10-23T12:11:43;21.10;99.90
10083;DHT22;5080;48.528;8.078;2022-10-23T12:14:27;21.10;99.90
10083;DHT22;5080;48.528;8.078;2022-10-23T12:16:54;21.10;99.90
10083;DHT22;5080;48.528;8.078;2022-10-23T12:19:23;21.10;99.90
10083;DHT22;5080;48.528;8.078;2022-10-23T12:21:51;21.00;99.90
10083;DHT22;5080;48.528;8.078;2022-10-23T12:24:38;21.00;99.90
10083;DHT22;5080;48.528;8.078;2022-10-23T12:27:27;21.10;99.90
10083;DHT22;5080;48.528;8.078;2022-10-23T12:30:03;21.00;99.90
10083;DHT22;5080;48.528;8.078;2022-10-23T12:35:57;21.20;99.90
10083;DHT22;5080;48.528;8.078;2022-10-23T12:38:29;21.30;99.90
10083;DHT22;5080;48.528;8.078;2022-10-23T12:41:01;21.50;99.90
10083;DHT22;5080;48.528;8.078;2022-10-23T12:43:33;21.50;99.90
10083;DHT22;5080;48.528;8.078;2022-10-23T12:46:03;21.50;99.90
10083;DHT22;5080;48.528;8.078;2022-10-23T12:48:33;21.20;99.90
10083;DHT22;5080;48.528;8.078;2022-10-23T12:51:00;21.10;99.90
10083;DHT22;5080;48.528;8.078;2022-10-23T12:53:27;21.00;99.90
10083;DHT22;5080;48.528;8.078;2022-10-23T12:55:59;21.00;99.90
10083;DHT22;5080;48.528;8.078;2022-10-23T12:58:28;21.10;99.90
10083;DHT22;5080;48.528;8.078;2022-10-23T13:00:58;21.20;99.90
10083;DHT22;5080;48.528;8.078;2022-10-23T13:03:26;21.30;99.90
10083;DHT22;5080;48.528;8.078;2022-10-23T13:05:55;21.30;99.90
10083;DHT22;5080;48.528;8.078;2022-10-23T13:08:30;21.40;99.90
10083;DHT22;5080;48.528;8.078;2022-10-23T13:10:59;21.40;99.90
10083;DHT22;5080;48.528;8.078;2022-10-23T13:13:26;21.40;99.90
10083;DHT22;5080;48.528;8.078;2022-10-23T13:15:53;21.40;99.90
10083;DHT22;5080;48.528;8.078;2022-10-23T13:18:20;21.40;99.90
10083;DHT22;5080;48.528;8.078;2022-10-23T13:20:57;21.40;99.90
10083;DHT22;5080;48.528;8.078;2022-10-23T13:23:28;21.50;99.90
10083;DHT22;5080;48.528;8.078;2022-10-23T13:25:59;21.40;99.90
10083;DHT22;5080;48.528;8.078;2022-10-23T13:28:27;21.40;99.90
10083;DHT22;5080;48.528;8.078;2022-10-23T13:31:03;21.30;99.90
10083;DHT22;5080;48.528;8.078;2022-10-23T13:33:35;21.30;99.90
10083;DHT22;5080;48.528;8.078;2022-10-23T13:36:05;21.40;99.90
10083;DHT22;5080;48.528;8.078;2022-10-23T13:38:36;21.40;99.90
10083;DHT22;5080;48.528;8.078;2022-10-23T13:41:11;21.50;99.90
10083;DHT22;5080;48.528;8.078;2022-10-23T13:43:39;21.50;99.90
10083;DHT22;5080;48.528;8.078;2022-10-23T13:46:12;21.50;99.90
10083;DHT22;5080;48.528;8.078;2022-10-23T13:48:39;21.60;99.90
10083;DHT22;5080;48.528;8.078;2022-10-23T13:51:11;21.60;99.90
10083;DHT22;5080;48.528;8.078;2022-10-23T13:53:39;21.60;99.90
10083;DHT22;5080;48.528;8.078;2022-10-23T13:56:09;21.60;99.90
10083;DHT22;5080;48.528;8.078;2022-10-23T13:58:36;21.60;99.90
10083;DHT22;5080;48.528;8.078;2022-10-23T14:01:03;21.60;99.90
10083;DHT22;5080;48.528;8.078;2022-10-23T14:03:30;21.40;99.90
10083;DHT22;5080;48.528;8.078;2022-10-23T14:05:57;21.30;99.90
10083;DHT22;5080;48.528;8.078;2022-10-23T14:08:24;21.10;99.90
10083;DHT22;5080;48.528;8.078;2022-10-23T14:10:51;21.10;99.90
10083;DHT22;5080;48.528;8.078;2022-10-23T14:13:19;21.00;99.90
10083;DHT22;5080;48.528;8.078;2022-10-23T14:15:52;20.90;99.90
10083;DHT22;5080;48.528;8.078;2022-10-23T14:18:19;20.80;99.90
10083;DHT22;5080;48.528;8.078;2022-10-23T14:20:45;20.70;99.90
10083;DHT22;5080;48.528;8.078;2022-10-23T14:23:12;20.70;99.90
10083;DHT22;5080;48.528;8.078;2022-10-23T14:25:39;20.60;99.90
10083;DHT22;5080;48.528;8.078;2022-10-23T14:28:06;20.60;99.90
10083;DHT22;5080;48.528;8.078;2022-10-23T14:30:36;20.50;99.90
10083;DHT22;5080;48.528;8.078;2022-10-23T14:33:05;20.60;99.90
10083;DHT22;5080;48.528;8.078;2022-10-23T14:35:38;20.60;99.90
10083;DHT22;5080;48.528;8.078;2022-10-23T14:38:05;20.60;99.90
10083;DHT22;5080;48.528;8.078;2022-10-23T14:40:36;20.60;99.90
10083;DHT22;5080;48.528;8.078;2022-10-23T14:43:02;20.60;99.90
10083;DHT22;5080;48.528;8.078;2022-10-23T14:45:29;20.60;99.90
10083;DHT22;5080;48.528;8.078;2022-10-23T14:47:57;20.60;99.90
10083;DHT22;5080;48.528;8.078;2022-10-23T14:50:25;20.50;99.90
10083;DHT22;5080;48.528;8.078;2022-10-23T14:52:52;20.50;99.90
10083;DHT22;5080;48.528;8.078;2022-10-23T14:55:19;20.50;99.90
10083;DHT22;5080;48.528;8.078;2022-10-23T14:57:45;20.60;99.90
10083;DHT22;5080;48.528;8.078;2022-10-23T15:00:13;20.70;99.90
10083;DHT22;5080;48.528;8.078;2022-10-23T15:02:40;20.80;99.90
10083;DHT22;5080;48.528;8.078;2022-10-23T15:05:08;20.80;99.90
10083;DHT22;5080;48.528;8.078;2022-10-23T15:07:35;20.80;99.90
10083;DHT22;5080;48.528;8.078;2022-10-23T15:10:02;20.80;99.90
10083;DHT22;5080;48.528;8.078;2022-10-23T15:12:29;20.70;99.90
10083;DHT22;5080;48.528;8.078;2022-10-23T15:14:56;20.70;99.90
10083;DHT22;5080;48.528;8.078;2022-10-23T15:17:22;20.70;99.90
10083;DHT22;5080;48.528;8.078;2022-10-23T15:19:49;20.60;99.90
10083;DHT22;5080;48.528;8.078;2022-10-23T15:22:17;20.60;99.90
10083;DHT22;5080;48.528;8.078;2022-10-23T15:24:44;20.60;99.90
10083;DHT22;5080;48.528;8.078;2022-10-23T15:27:12;20.50;99.90
10083;DHT22;5080;48.528;8.078;2022-10-23T15:29:39;20.50;99.90
10083;DHT22;5080;48.528;8.078;2022-10-23T15:32:08;20.50;99.90
10083;DHT22;5080;48.528;8.078;2022-10-23T15:34:35;20.50;99.90
10083;DHT22;5080;48.528;8.078;2022-10-23T15:37:04;20.50;99.90
10083;DHT22;5080;48.528;8.078;2022-10-23T15:39:32;20.50;99.90
10083;DHT22;5080;48.528;8.078;2022-10-23T15:42:01;20.40;99.90
10083;DHT22;5080;48.528;8.078;2022-10-23T15:44:29;20.40;99.90
10083;DHT22;5080;48.528;8.078;2022-10-23T15:46:57;20.30;99.90
10083;DHT22;5080;48.528;8.078;2022-10-23T15:49:24;20.20;99.90
10083;DHT22;5080;48.528;8.078;2022-10-23T15:51:52;20.10;99.90
10083;DHT22;5080;48.528;8.078;2022-10-23T15:54:19;20.00;99.90
10083;DHT22;5080;48.528;8.078;2022-10-23T15:56:49;20.00;99.90
10083;DHT22;5080;48.528;8.078;2022-10-23T15:59:16;19.90;99.90
10083;DHT22;5080;48.528;8.078;2022-10-23T16:01:43;19.90;99.90
10083;DHT22;5080;48.528;8.078;2022-10-23T16:04:10;19.90;99.90
10083;DHT22;5080;48.528;8.078;2022-10-23T16:06:37;19.80;99.90
10083;DHT22;5080;48.528;8.078;2022-10-23T16:09:04;19.70;99.90
10083;DHT22;5080;48.528;8.078;2022-10-23T16:11:33;19.70;99.90
10083;DHT22;5080;48.528;8.078;2022-10-23T16:14:01;19.60;99.90